createdAt,value
2023-02-26T00:03:06.906Z,0.00
2023-02-26T00:08:09.986Z,0.00
2023-02-26T00:13:13.306Z,0.00
2023-02-26T00:18:18.063Z,1.00
2023-02-26T00:23:21.259Z,0.00
2023-02-26T00:28:24.481Z,0.00
2023-02-26T00:33:29.559Z,0.00
2023-02-26T00:38:33.403Z,0.00
2023-02-26T00:43:36.806Z,0.00
2023-02-26T00:48:47.099Z,0.00
2023-02-26T00:53:52.951Z,0.00
2023-02-26T00:58:55.738Z,0.00
2023-02-26T01:04:00.328Z,0.00
2023-02-26T01:09:06.592Z,0.00
2023-02-26T01:14:09.848Z,0.20
2023-02-26T01:19:19.477Z,0.00
2023-02-26T01:24:22.338Z,0.00
2023-02-26T01:29:25.504Z,0.00
2023-02-26T01:34:33.587Z,0.00
2023-02-26T01:39:39.798Z,0.00
2023-02-26T01:44:43.672Z,0.00
2023-02-26T01:49:48.878Z,0.00
2023-02-26T01:54:51.644Z,0.00
2023-02-26T01:59:54.475Z,0.20
2023-02-26T02:05:02.425Z,0.00
2023-02-26T02:10:05.821Z,0.00
2023-02-26T02:15:10.822Z,0.00
2023-02-26T02:20:27.389Z,0.00
2023-02-26T02:26:10.921Z,0.00
2023-02-26T02:31:16.760Z,0.00
2023-02-26T02:36:21.646Z,0.00
2023-02-26T02:41:26.526Z,0.00
2023-02-26T02:46:31.986Z,0.00
2023-02-26T02:51:37.672Z,0.00
2023-02-26T02:56:43.713Z,0.00
2023-02-26T03:01:49.588Z,0.00
2023-02-26T03:06:52.442Z,0.00
2023-02-26T03:11:55.216Z,0.00
2023-02-26T03:17:13.507Z,0.00
2023-02-26T03:22:21.618Z,0.00
2023-02-26T03:27:48.794Z,0.00
2023-02-26T03:32:57.835Z,0.00
2023-02-26T03:38:02.902Z,0.00
2023-02-26T03:43:07.401Z,0.00
2023-02-26T03:48:12.677Z,0.00
2023-02-26T03:53:17.242Z,0.00
2023-02-26T03:58:23.631Z,0.00
2023-02-26T04:03:46.624Z,0.00
2023-02-26T04:08:49.406Z,0.00
2023-02-26T04:13:52.225Z,0.00
2023-02-26T04:18:56.803Z,0.00
2023-02-26T04:23:59.797Z,0.00
2023-02-26T04:29:02.769Z,0.20
2023-02-26T04:34:07.358Z,0.00
2023-02-26T04:39:11.009Z,0.00
2023-02-26T04:44:13.976Z,0.00
2023-02-26T04:49:19.350Z,0.20
2023-02-26T04:54:22.199Z,0.00
2023-02-26T04:59:25.084Z,0.00
2023-02-26T05:04:29.456Z,0.00
2023-02-26T05:09:35.381Z,0.00
2023-02-26T05:14:38.535Z,0.00
2023-02-26T05:19:42.619Z,0.00
2023-02-26T05:24:46.141Z,0.20
2023-02-26T05:29:48.909Z,0.00
2023-02-26T05:34:53.137Z,0.00
2023-02-26T05:39:56.056Z,0.00
2023-02-26T05:44:59.036Z,0.00
2023-02-26T05:50:03.162Z,0.00
2023-02-26T05:55:07.244Z,0.20
2023-02-26T06:00:11.241Z,0.00
2023-02-26T06:05:18.144Z,0.00
2023-02-26T06:10:21.058Z,0.00
2023-02-26T06:15:24.040Z,1.00
2023-02-26T06:20:28.167Z,0.00
2023-02-26T06:25:31.189Z,0.00
2023-02-26T06:30:33.996Z,0.00
2023-02-26T06:35:38.235Z,0.00
2023-02-26T06:40:41.315Z,0.00
2023-02-26T06:45:44.149Z,0.00
2023-02-26T06:50:48.377Z,0.00
2023-02-26T06:55:51.905Z,0.00
2023-02-26T07:00:54.899Z,0.00
2023-02-26T07:06:03.540Z,0.00
2023-02-26T07:11:16.863Z,0.20
2023-02-26T07:16:19.685Z,0.00
2023-02-26T07:21:24.034Z,0.00
2023-02-26T07:26:27.033Z,0.00
2023-02-26T07:31:30.307Z,0.00
2023-02-26T07:36:34.470Z,0.00
2023-02-26T07:41:37.322Z,0.00
2023-02-26T07:46:40.123Z,0.00
2023-02-26T07:51:45.945Z,0.00
2023-02-26T07:56:48.867Z,0.00
2023-02-26T08:01:51.778Z,1.60
2023-02-26T08:06:57.390Z,1.80
2023-02-26T08:12:00.531Z,0.80
2023-02-26T08:17:03.407Z,1.00
2023-02-26T08:22:07.551Z,0.60
2023-02-26T08:27:12.151Z,0.00
2023-02-26T08:32:16.453Z,1.80
2023-02-26T08:37:22.661Z,1.00
2023-02-26T08:42:25.536Z,1.00
2023-02-26T08:47:29.331Z,1.40
2023-02-26T08:52:33.857Z,1.40
2023-02-26T08:57:36.654Z,1.00
2023-02-26T09:02:39.699Z,0.40
2023-02-26T09:07:43.956Z,1.00
2023-02-26T09:12:46.742Z,1.00
2023-02-26T09:17:49.727Z,0.20
2023-02-26T09:22:54.052Z,1.00
2023-02-26T09:27:58.649Z,1.60
2023-02-26T09:33:01.630Z,1.00
2023-02-26T09:38:05.715Z,0.20
2023-02-26T09:43:26.532Z,1.00
2023-02-26T09:48:29.476Z,0.00
2023-02-26T09:53:35.184Z,1.00
2023-02-26T09:58:39.260Z,0.20
2023-02-26T10:03:52.557Z,0.80
2023-02-26T10:09:11.420Z,0.00
2023-02-26T10:14:17.346Z,0.80
2023-02-26T10:19:21.134Z,0.20
2023-02-26T10:24:26.239Z,0.00
2023-02-26T10:29:33.030Z,0.00
2023-02-26T10:34:37.590Z,0.00
2023-02-26T10:39:44.816Z,0.00
2023-02-26T10:44:51.022Z,0.00
2023-02-26T10:49:55.541Z,1.00
2023-02-26T10:55:07.408Z,0.00
2023-02-26T11:00:16.069Z,0.00
2023-02-26T11:05:20.098Z,0.80
2023-02-26T11:10:25.881Z,0.00
2023-02-26T11:15:29.817Z,1.00
2023-02-26T11:20:36.074Z,0.00
2023-02-26T11:25:40.234Z,1.00
2023-02-26T11:30:44.137Z,0.00
2023-02-26T11:35:47.546Z,0.60
2023-02-26T11:40:53.850Z,3.00
2023-02-26T11:45:58.740Z,12.00
2023-02-26T11:51:02.199Z,19.00
2023-02-26T11:56:10.545Z,14.00
2023-02-26T12:01:16.631Z,10.40
2023-02-26T12:06:20.379Z,10.40
2023-02-26T12:12:10.307Z,6.80
2023-02-26T12:17:22.832Z,6.60
2023-02-26T12:22:33.618Z,3.60
2023-02-26T12:27:47.353Z,4.00
2023-02-26T12:33:06.355Z,4.00
2023-02-26T12:38:22.729Z,2.00
2023-02-26T12:43:33.615Z,1.00
2023-02-26T12:49:04.280Z,2.80
2023-02-26T12:54:28.104Z,2.00
2023-02-26T12:59:40.037Z,1.00
2023-02-26T13:04:59.819Z,2.80
2023-02-26T13:10:04.669Z,1.00
2023-02-26T13:15:20.625Z,1.00
2023-02-26T13:20:24.861Z,2.60
2023-02-26T13:25:31.901Z,2.00
2023-02-26T13:30:39.673Z,1.40
2023-02-26T13:35:43.517Z,2.00
2023-02-26T13:40:54.720Z,2.20
2023-02-26T13:46:03.718Z,1.60
2023-02-26T13:51:08.831Z,1.60
2023-02-26T13:56:15.107Z,1.00
2023-02-26T14:01:20.217Z,1.40
2023-02-26T14:06:25.616Z,1.00
2023-02-26T14:11:47.044Z,2.00
2023-02-26T14:16:54.383Z,1.00
2023-02-26T14:21:58.945Z,1.00
2023-02-26T14:27:27.149Z,1.40
2023-02-26T14:32:33.331Z,1.00
2023-02-26T14:37:38.089Z,1.80
2023-02-26T14:42:43.735Z,2.60
2023-02-26T14:47:48.675Z,2.00
2023-02-26T14:53:27.894Z,1.00
2023-02-26T14:59:06.144Z,1.00
2023-02-26T15:04:16.276Z,1.00
2023-02-26T15:09:20.217Z,0.80
2023-02-26T15:14:35.371Z,2.00
2023-02-26T15:19:47.485Z,1.00
2023-02-26T15:24:50.404Z,0.20
2023-02-26T15:29:53.793Z,1.00
2023-02-26T15:35:00.659Z,1.00
2023-02-26T15:40:05.725Z,1.40
2023-02-26T15:45:13.610Z,0.80
2023-02-26T15:50:18.263Z,0.60
2023-02-26T15:55:21.058Z,0.20
2023-02-26T16:00:25.637Z,3.20
2023-02-26T16:05:30.123Z,2.20
2023-02-26T16:10:34.150Z,1.60
2023-02-26T16:15:38.323Z,1.00
2023-02-26T16:20:43.655Z,2.20
2023-02-26T16:25:52.905Z,1.40
2023-02-26T16:30:57.406Z,1.00
2023-02-26T16:36:06.292Z,1.00
2023-02-26T16:41:10.887Z,0.40
2023-02-26T16:46:16.530Z,1.00
2023-02-26T16:51:21.557Z,1.80
2023-02-26T16:56:26.388Z,1.40
2023-02-26T17:01:29.314Z,1.40
2023-02-26T17:06:38.337Z,0.80
2023-02-26T17:11:44.536Z,1.60
2023-02-26T17:16:48.450Z,2.20
2023-02-26T17:21:54.325Z,1.00
2023-02-26T17:26:57.115Z,0.00
2023-02-26T17:32:00.037Z,1.00
2023-02-26T17:37:07.589Z,2.00
2023-02-26T17:42:12.009Z,2.60
2023-02-26T17:47:16.498Z,3.00
2023-02-26T17:52:20.697Z,2.20
2023-02-26T17:57:23.670Z,5.60
2023-02-26T18:02:27.127Z,6.20
2023-02-26T18:07:31.301Z,3.00
2023-02-26T18:12:34.160Z,2.40
2023-02-26T18:17:36.964Z,4.60
2023-02-26T18:22:41.329Z,5.00
2023-02-26T18:27:44.318Z,5.00
2023-02-26T18:32:47.155Z,5.00
2023-02-26T18:37:51.602Z,3.00
2023-02-26T18:42:54.490Z,3.00
2023-02-26T18:47:57.261Z,4.20
2023-02-26T18:53:01.423Z,4.80
2023-02-26T18:58:04.661Z,4.60
2023-02-26T19:03:09.152Z,4.60
2023-02-26T19:08:13.273Z,3.80
2023-02-26T19:13:16.095Z,6.00
2023-02-26T19:18:18.929Z,4.20
2023-02-26T19:23:23.960Z,3.00
2023-02-26T19:28:26.705Z,4.80
2023-02-26T19:33:29.469Z,2.60
2023-02-26T19:38:33.628Z,3.00
2023-02-26T19:43:36.531Z,4.60
2023-02-26T19:48:39.363Z,5.00
2023-02-26T19:53:43.451Z,5.00
2023-02-26T19:58:46.222Z,3.00
2023-02-26T20:03:49.195Z,4.60
2023-02-26T20:08:53.489Z,3.00
2023-02-26T20:13:56.455Z,5.40
2023-02-26T20:18:59.918Z,2.00
2023-02-26T20:24:05.159Z,3.00
2023-02-26T20:29:08.920Z,3.00
2023-02-26T20:34:12.144Z,5.20
2023-02-26T20:39:17.843Z,2.80
2023-02-26T20:44:20.728Z,4.80
2023-02-26T20:49:24.787Z,3.00
2023-02-26T20:54:28.968Z,4.60
2023-02-26T20:59:31.868Z,5.40
2023-02-26T21:04:34.650Z,5.20
2023-02-26T21:09:38.771Z,3.40
2023-02-26T21:14:41.596Z,4.60
2023-02-26T21:19:44.527Z,5.00
2023-02-26T21:24:48.685Z,3.80
2023-02-26T21:29:51.474Z,7.00
2023-02-26T21:34:54.224Z,6.20
2023-02-26T21:39:58.356Z,6.00
2023-02-26T21:45:01.211Z,5.00
2023-02-26T21:50:04.196Z,5.00
2023-02-26T21:55:09.041Z,5.00
2023-02-26T22:00:12.903Z,5.80
2023-02-26T22:05:15.643Z,3.80
2023-02-26T22:10:20.120Z,6.00
2023-02-26T22:15:23.147Z,3.00
2023-02-26T22:20:25.976Z,4.20
2023-02-26T22:25:31.090Z,3.40
2023-02-26T22:30:33.923Z,5.80
2023-02-26T22:35:36.701Z,5.20
2023-02-26T22:40:40.827Z,6.00
2023-02-26T22:45:43.691Z,5.40
2023-02-26T22:50:46.525Z,5.00
2023-02-26T22:55:50.821Z,5.00
2023-02-26T23:00:59.614Z,3.40
2023-02-26T23:06:02.358Z,2.60
2023-02-26T23:11:06.709Z,3.00
2023-02-26T23:16:10.568Z,3.00
2023-02-26T23:21:13.399Z,3.00
2023-02-26T23:26:18.460Z,3.00
2023-02-26T23:31:21.433Z,4.60
2023-02-26T23:36:24.436Z,3.60
2023-02-26T23:41:28.887Z,5.20
2023-02-26T23:46:31.705Z,5.00
2023-02-26T23:51:34.509Z,4.20
2023-02-26T23:56:38.664Z,2.00
